sensor_id;sensor_type;location;lat;lon;timestamp;pressure;altitude;pressure_sealevel;temperature;humidity
63121;BME280;54478;48.684;20.114;2023-05-03T00:00:06;98426.50;;;15.61;100.00
63121;BME280;54478;48.684;20.114;2023-05-03T00:02:35;98435.06;;;15.69;100.00
63121;BME280;54478;48.684;20.114;2023-05-03T00:05:07;98436.53;;;15.37;100.00
63121;BME280;54478;48.684;20.114;2023-05-03T00:07:36;98439.34;;;15.37;100.00
63121;BME280;54478;48.684;20.114;2023-05-03T00:10:05;98435.66;;;15.29;100.00
63121;BME280;54478;48.684;20.114;2023-05-03T00:12:36;98434.09;;;15.66;100.00
63121;BME280;54478;48.684;20.114;2023-05-03T00:15:06;98423.09;;;15.68;100.00
63121;BME280;54478;48.684;20.114;2023-05-03T00:17:37;98423.94;;;15.63;100.00
63121;BME280;54478;48.684;20.114;2023-05-03T00:20:06;98431.63;;;15.43;100.00
63121;BME280;54478;48.684;20.114;2023-05-03T00:22:35;98421.38;;;15.27;100.00
63121;BME280;54478;48.684;20.114;2023-05-03T00:25:04;98436.63;;;15.32;100.00
63121;BME280;54478;48.684;20.114;2023-05-03T00:27:29;98436.78;;;15.39;100.00
63121;BME280;54478;48.684;20.114;2023-05-03T00:29:57;98447.63;;;15.49;100.00
63121;BME280;54478;48.684;20.114;2023-05-03T00:32:25;98452.75;;;15.63;100.00
63121;BME280;54478;48.684;20.114;2023-05-03T00:34:54;98464.06;;;15.77;100.00
63121;BME280;54478;48.684;20.114;2023-05-03T00:37:24;98444.94;;;15.75;100.00
63121;BME280;54478;48.684;20.114;2023-05-03T00:39:53;98452.91;;;15.71;100.00
63121;BME280;54478;48.684;20.114;2023-05-03T00:42:21;98456.84;;;15.82;100.00
63121;BME280;54478;48.684;20.114;2023-05-03T00:44:51;98455.50;;;15.31;100.00
63121;BME280;54478;48.684;20.114;2023-05-03T00:47:19;98457.66;;;15.76;100.00
63121;BME280;54478;48.684;20.114;2023-05-03T00:49:47;98453.66;;;15.91;100.00
63121;BME280;54478;48.684;20.114;2023-05-03T00:52:16;98444.13;;;15.61;100.00
63121;BME280;54478;48.684;20.114;2023-05-03T00:54:44;98451.94;;;15.50;100.00
63121;BME280;54478;48.684;20.114;2023-05-03T00:57:13;98449.78;;;15.56;100.00
63121;BME280;54478;48.684;20.114;2023-05-03T00:59:41;98446.84;;;15.67;100.00
63121;BME280;54478;48.684;20.114;2023-05-03T01:02:10;98463.75;;;15.81;100.00
63121;BME280;54478;48.684;20.114;2023-05-03T01:04:38;98465.03;;;15.79;100.00
63121;BME280;54478;48.684;20.114;2023-05-03T01:07:27;98461.97;;;15.83;100.00
63121;BME280;54478;48.684;20.114;2023-05-03T01:10:19;98456.19;;;15.94;100.00
63121;BME280;54478;48.684;20.114;2023-05-03T01:15:43;98447.75;;;15.75;100.00
63121;BME280;54478;48.684;20.114;2023-05-03T01:18:17;98431.97;;;15.72;100.00
63121;BME280;54478;48.684;20.114;2023-05-03T01:20:48;98435.91;;;15.83;100.00
63121;BME280;54478;48.684;20.114;2023-05-03T01:23:28;98445.31;;;15.66;100.00
63121;BME280;54478;48.684;20.114;2023-05-03T01:25:59;98438.22;;;15.84;100.00
63121;BME280;54478;48.684;20.114;2023-05-03T01:28:25;98444.63;;;15.98;100.00
63121;BME280;54478;48.684;20.114;2023-05-03T01:30:54;98452.44;;;15.67;100.00
63121;BME280;54478;48.684;20.114;2023-05-03T01:33:36;98464.97;;;15.47;100.00
63121;BME280;54478;48.684;20.114;2023-05-03T01:36:10;98461.69;;;16.00;100.00
63121;BME280;54478;48.684;20.114;2023-05-03T01:38:37;98455.59;;;15.44;100.00
63121;BME280;54478;48.684;20.114;2023-05-03T01:41:09;98486.31;;;15.12;100.00
63121;BME280;54478;48.684;20.114;2023-05-03T01:43:39;98468.81;;;15.25;100.00
63121;BME280;54478;48.684;20.114;2023-05-03T01:46:08;98494.34;;;15.02;100.00
63121;BME280;54478;48.684;20.114;2023-05-03T01:48:36;98491.41;;;14.89;100.00
63121;BME280;54478;48.684;20.114;2023-05-03T01:51:05;98491.94;;;15.31;100.00
63121;BME280;54478;48.684;20.114;2023-05-03T01:53:33;98487.19;;;15.45;100.00
63121;BME280;54478;48.684;20.114;2023-05-03T01:56:01;98481.81;;;15.47;100.00
63121;BME280;54478;48.684;20.114;2023-05-03T01:58:30;98503.78;;;15.24;100.00
63121;BME280;54478;48.684;20.114;2023-05-03T02:00:58;98491.41;;;16.41;100.00
63121;BME280;54478;48.684;20.114;2023-05-03T02:03:27;98475.72;;;15.43;100.00
63121;BME280;54478;48.684;20.114;2023-05-03T02:05:55;98493.84;;;15.23;100.00
63121;BME280;54478;48.684;20.114;2023-05-03T02:08:23;98495.09;;;15.03;100.00
63121;BME280;54478;48.684;20.114;2023-05-03T02:10:51;98506.72;;;15.12;100.00
63121;BME280;54478;48.684;20.114;2023-05-03T02:13:20;98503.72;;;15.05;100.00
63121;BME280;54478;48.684;20.114;2023-05-03T02:15:48;98519.81;;;14.43;100.00
63121;BME280;54478;48.684;20.114;2023-05-03T02:18:16;98528.72;;;14.78;100.00
63121;BME280;54478;48.684;20.114;2023-05-03T02:20:45;98536.66;;;14.74;100.00
63121;BME280;54478;48.684;20.114;2023-05-03T02:23:14;98540.34;;;14.88;100.00
63121;BME280;54478;48.684;20.114;2023-05-03T02:25:42;98533.94;;;15.18;100.00
63121;BME280;54478;48.684;20.114;2023-05-03T02:28:08;98524.69;;;14.73;100.00
63121;BME280;54478;48.684;20.114;2023-05-03T02:30:36;98519.84;;;14.74;100.00
63121;BME280;54478;48.684;20.114;2023-05-03T02:33:04;98532.88;;;14.96;100.00
63121;BME280;54478;48.684;20.114;2023-05-03T02:35:33;98525.91;;;14.78;100.00
63121;BME280;54478;48.684;20.114;2023-05-03T02:38:01;98525.97;;;14.72;100.00
63121;BME280;54478;48.684;20.114;2023-05-03T02:40:29;98530.50;;;15.06;100.00
63121;BME280;54478;48.684;20.114;2023-05-03T02:42:58;98526.28;;;14.63;100.00
63121;BME280;54478;48.684;20.114;2023-05-03T02:45:26;98532.53;;;14.80;100.00
63121;BME280;54478;48.684;20.114;2023-05-03T02:47:55;98524.84;;;14.81;100.00
63121;BME280;54478;48.684;20.114;2023-05-03T02:50:23;98526.97;;;14.75;100.00
63121;BME280;54478;48.684;20.114;2023-05-03T02:52:51;98537.03;;;14.89;100.00
63121;BME280;54478;48.684;20.114;2023-05-03T02:55:19;98527.56;;;14.62;100.00
63121;BME280;54478;48.684;20.114;2023-05-03T02:57:48;98532.06;;;14.76;100.00
63121;BME280;54478;48.684;20.114;2023-05-03T03:00:18;98533.69;;;14.91;100.00
63121;BME280;54478;48.684;20.114;2023-05-03T03:02:46;98529.72;;;15.05;100.00
63121;BME280;54478;48.684;20.114;2023-05-03T03:05:15;98544.53;;;15.00;100.00
63121;BME280;54478;48.684;20.114;2023-05-03T03:07:43;98546.53;;;14.80;100.00
63121;BME280;54478;48.684;20.114;2023-05-03T03:10:12;98538.72;;;14.98;100.00
63121;BME280;54478;48.684;20.114;2023-05-03T03:12:40;98522.00;;;15.11;100.00
63121;BME280;54478;48.684;20.114;2023-05-03T03:15:09;98515.81;;;14.94;100.00
63121;BME280;54478;48.684;20.114;2023-05-03T03:17:37;98520.41;;;14.91;100.00
63121;BME280;54478;48.684;20.114;2023-05-03T03:20:07;98515.28;;;15.20;100.00
63121;BME280;54478;48.684;20.114;2023-05-03T03:22:41;98511.38;;;15.04;100.00
63121;BME280;54478;48.684;20.114;2023-05-03T03:25:12;98524.22;;;15.19;100.00
63121;BME280;54478;48.684;20.114;2023-05-03T03:27:37;98520.94;;;15.15;100.00
63121;BME280;54478;48.684;20.114;2023-05-03T03:30:07;98521.59;;;15.26;100.00
63121;BME280;54478;48.684;20.114;2023-05-03T03:32:36;98541.34;;;14.90;100.00
63121;BME280;54478;48.684;20.114;2023-05-03T03:35:05;98557.31;;;15.45;100.00
63121;BME280;54478;48.684;20.114;2023-05-03T03:37:33;98549.22;;;15.17;100.00
63121;BME280;54478;48.684;20.114;2023-05-03T03:40:02;98558.28;;;15.04;100.00
63121;BME280;54478;48.684;20.114;2023-05-03T03:42:30;98574.38;;;14.37;100.00
63121;BME280;54478;48.684;20.114;2023-05-03T03:44:58;98589.13;;;14.73;100.00
63121;BME280;54478;48.684;20.114;2023-05-03T03:47:27;98606.28;;;14.94;100.00
63121;BME280;54478;48.684;20.114;2023-05-03T03:49:55;98603.88;;;15.04;100.00
63121;BME280;54478;48.684;20.114;2023-05-03T03:52:23;98607.63;;;14.88;100.00
63121;BME280;54478;48.684;20.114;2023-05-03T03:54:49;98621.84;;;14.90;100.00
63121;BME280;54478;48.684;20.114;2023-05-03T03:57:18;98623.28;;;15.27;100.00
63121;BME280;54478;48.684;20.114;2023-05-03T03:59:46;98635.34;;;15.22;100.00
63121;BME280;54478;48.684;20.114;2023-05-03T04:02:15;98621.41;;;15.35;100.00
63121;BME280;54478;48.684;20.114;2023-05-03T04:04:43;98626.44;;;15.42;100.00
63121;BME280;54478;48.684;20.114;2023-05-03T04:07:11;98623.88;;;15.20;100.00
63121;BME280;54478;48.684;20.114;2023-05-03T04:09:40;98624.72;;;15.39;100.00
63121;BME280;54478;48.684;20.114;2023-05-03T04:12:17;98631.00;;;15.45;100.00
63121;BME280;54478;48.684;20.114;2023-05-03T04:14:43;98632.81;;;15.43;100.00
63121;BME280;54478;48.684;20.114;2023-05-03T04:17:11;98628.59;;;15.55;100.00
63121;BME280;54478;48.684;20.114;2023-05-03T04:19:39;98629.84;;;15.79;100.00
63121;BME280;54478;48.684;20.114;2023-05-03T04:22:08;98642.75;;;15.44;100.00
63121;BME280;54478;48.684;20.114;2023-05-03T04:24:36;98638.91;;;15.47;100.00
63121;BME280;54478;48.684;20.114;2023-05-03T04:27:04;98634.16;;;15.61;100.00
63121;BME280;54478;48.684;20.114;2023-05-03T04:29:32;98630.13;;;15.81;100.00
63121;BME280;54478;48.684;20.114;2023-05-03T04:32:00;98638.06;;;15.77;100.00
63121;BME280;54478;48.684;20.114;2023-05-03T04:34:29;98619.91;;;15.59;100.00
63121;BME280;54478;48.684;20.114;2023-05-03T04:36:58;98628.84;;;15.57;100.00
63121;BME280;54478;48.684;20.114;2023-05-03T04:39:27;98635.44;;;15.60;100.00
63121;BME280;54478;48.684;20.114;2023-05-03T04:41:57;98635.28;;;15.52;100.00
63121;BME280;54478;48.684;20.114;2023-05-03T04:44:25;98639.25;;;15.62;100.00
63121;BME280;54478;48.684;20.114;2023-05-03T04:46:53;98644.34;;;15.64;100.00
63121;BME280;54478;48.684;20.114;2023-05-03T04:49:21;98659.53;;;15.50;100.00
63121;BME280;54478;48.684;20.114;2023-05-03T04:51:49;98663.72;;;15.37;100.00
63121;BME280;54478;48.684;20.114;2023-05-03T04:54:18;98695.34;;;15.38;100.00
63121;BME280;54478;48.684;20.114;2023-05-03T04:56:46;98697.50;;;14.95;100.00
63121;BME280;54478;48.684;20.114;2023-05-03T04:59:15;98699.94;;;15.35;100.00
63121;BME280;54478;48.684;20.114;2023-05-03T05:01:43;98692.38;;;16.04;100.00
63121;BME280;54478;48.684;20.114;2023-05-03T05:04:11;98683.50;;;16.00;100.00
63121;BME280;54478;48.684;20.114;2023-05-03T05:06:40;98688.25;;;15.86;100.00
63121;BME280;54478;48.684;20.114;2023-05-03T05:09:21;98691.38;;;16.02;100.00
63121;BME280;54478;48.684;20.114;2023-05-03T05:11:50;98699.56;;;15.50;100.00
63121;BME280;54478;48.684;20.114;2023-05-03T05:14:19;98721.16;;;15.31;100.00
63121;BME280;54478;48.684;20.114;2023-05-03T05:16:47;98736.03;;;15.50;100.00
63121;BME280;54478;48.684;20.114;2023-05-03T05:19:13;98741.03;;;15.02;100.00
63121;BME280;54478;48.684;20.114;2023-05-03T05:21:39;98790.75;;;14.37;100.00
63121;BME280;54478;48.684;20.114;2023-05-03T05:24:09;98816.41;;;14.53;100.00
63121;BME280;54478;48.684;20.114;2023-05-03T05:26:37;98861.19;;;15.23;100.00
63121;BME280;54478;48.684;20.114;2023-05-03T05:29:05;98850.22;;;15.97;100.00
63121;BME280;54478;48.684;20.114;2023-05-03T05:31:34;98825.78;;;15.86;100.00
63121;BME280;54478;48.684;20.114;2023-05-03T05:34:03;98813.53;;;15.89;100.00
63121;BME280;54478;48.684;20.114;2023-05-03T05:36:32;98803.91;;;16.28;100.00
63121;BME280;54478;48.684;20.114;2023-05-03T05:39:00;98776.91;;;16.01;100.00
63121;BME280;54478;48.684;20.114;2023-05-03T05:41:29;98786.91;;;15.96;100.00
63121;BME280;54478;48.684;20.114;2023-05-03T05:43:57;98767.81;;;16.38;100.00
63121;BME280;54478;48.684;20.114;2023-05-03T05:46:26;98760.09;;;16.20;100.00
63121;BME280;54478;48.684;20.114;2023-05-03T05:48:54;98763.16;;;16.22;100.00
63121;BME280;54478;48.684;20.114;2023-05-03T05:51:22;98766.88;;;16.49;100.00
63121;BME280;54478;48.684;20.114;2023-05-03T05:53:51;98746.22;;;16.27;100.00
63121;BME280;54478;48.684;20.114;2023-05-03T05:56:19;98763.50;;;16.13;100.00
63121;BME280;54478;48.684;20.114;2023-05-03T05:58:48;98755.09;;;16.13;100.00
63121;BME280;54478;48.684;20.114;2023-05-03T06:01:16;98760.34;;;16.22;100.00
63121;BME280;54478;48.684;20.114;2023-05-03T06:03:44;98772.78;;;16.26;100.00
63121;BME280;54478;48.684;20.114;2023-05-03T06:06:13;98783.13;;;16.37;100.00
63121;BME280;54478;48.684;20.114;2023-05-03T06:08:41;98773.25;;;16.50;100.00
63121;BME280;54478;48.684;20.114;2023-05-03T06:11:10;98749.09;;;16.60;100.00
63121;BME280;54478;48.684;20.114;2023-05-03T06:13:41;98731.34;;;16.71;100.00
63121;BME280;54478;48.684;20.114;2023-05-03T06:16:10;98725.94;;;16.73;100.00
63121;BME280;54478;48.684;20.114;2023-05-03T06:18:38;98691.84;;;17.15;100.00
63121;BME280;54478;48.684;20.114;2023-05-03T06:21:07;98678.97;;;16.87;100.00
63121;BME280;54478;48.684;20.114;2023-05-03T06:23:35;98682.63;;;16.82;100.00
63121;BME280;54478;48.684;20.114;2023-05-03T06:26:05;98694.53;;;17.07;100.00
63121;BME280;54478;48.684;20.114;2023-05-03T06:28:30;98707.81;;;16.36;100.00
63121;BME280;54478;48.684;20.114;2023-05-03T06:30:59;98717.34;;;16.84;100.00
63121;BME280;54478;48.684;20.114;2023-05-03T06:33:27;98728.81;;;16.86;100.00
63121;BME280;54478;48.684;20.114;2023-05-03T06:35:55;98725.72;;;16.71;100.00
63121;BME280;54478;48.684;20.114;2023-05-03T06:38:28;98723.38;;;16.94;100.00
63121;BME280;54478;48.684;20.114;2023-05-03T06:40:57;98717.00;;;16.74;100.00
63121;BME280;54478;48.684;20.114;2023-05-03T06:43:25;98717.16;;;16.63;100.00
63121;BME280;54478;48.684;20.114;2023-05-03T06:45:57;98734.84;;;16.77;100.00
63121;BME280;54478;48.684;20.114;2023-05-03T06:48:25;98716.22;;;16.55;100.00
63121;BME280;54478;48.684;20.114;2023-05-03T06:50:55;98714.94;;;16.56;100.00
63121;BME280;54478;48.684;20.114;2023-05-03T06:53:23;98711.13;;;16.34;100.00
63121;BME280;54478;48.684;20.114;2023-05-03T06:55:51;98704.78;;;16.34;100.00
63121;BME280;54478;48.684;20.114;2023-05-03T06:58:20;98699.22;;;16.47;100.00
63121;BME280;54478;48.684;20.114;2023-05-03T07:00:51;98699.31;;;16.41;100.00
63121;BME280;54478;48.684;20.114;2023-05-03T07:03:20;98697.94;;;16.29;100.00
63121;BME280;54478;48.684;20.114;2023-05-03T07:05:48;98686.84;;;16.37;100.00
63121;BME280;54478;48.684;20.114;2023-05-03T07:08:17;98688.13;;;16.55;100.00
63121;BME280;54478;48.684;20.114;2023-05-03T07:10:47;98673.88;;;16.53;100.00
63121;BME280;54478;48.684;20.114;2023-05-03T07:13:15;98669.22;;;16.74;100.00
63121;BME280;54478;48.684;20.114;2023-05-03T07:15:43;98663.34;;;16.91;100.00
63121;BME280;54478;48.684;20.114;2023-05-03T07:18:13;98654.44;;;16.87;100.00
63121;BME280;54478;48.684;20.114;2023-05-03T07:20:41;98659.38;;;17.00;100.00
63121;BME280;54478;48.684;20.114;2023-05-03T07:23:09;98642.25;;;17.44;100.00
63121;BME280;54478;48.684;20.114;2023-05-03T07:25:37;98641.88;;;17.48;100.00
63121;BME280;54478;48.684;20.114;2023-05-03T07:28:03;98634.75;;;17.20;100.00
63121;BME280;54478;48.684;20.114;2023-05-03T07:30:32;98625.75;;;17.21;100.00
63121;BME280;54478;48.684;20.114;2023-05-03T07:33:00;98630.97;;;17.57;100.00
63121;BME280;54478;48.684;20.114;2023-05-03T07:35:29;98638.09;;;17.45;100.00
63121;BME280;54478;48.684;20.114;2023-05-03T07:37:58;98632.38;;;17.64;100.00
63121;BME280;54478;48.684;20.114;2023-05-03T07:40:26;98621.44;;;18.01;100.00
63121;BME280;54478;48.684;20.114;2023-05-03T07:42:56;98613.97;;;17.77;100.00
63121;BME280;54478;48.684;20.114;2023-05-03T07:45:25;98608.75;;;17.94;100.00
63121;BME280;54478;48.684;20.114;2023-05-03T07:47:54;98604.22;;;17.78;100.00
63121;BME280;54478;48.684;20.114;2023-05-03T07:50:24;98603.16;;;17.54;100.00
63121;BME280;54478;48.684;20.114;2023-05-03T07:52:49;98592.41;;;17.66;100.00
63121;BME280;54478;48.684;20.114;2023-05-03T07:55:19;98597.84;;;17.64;100.00
63121;BME280;54478;48.684;20.114;2023-05-03T07:57:47;98603.03;;;18.00;100.00
63121;BME280;54478;48.684;20.114;2023-05-03T08:00:15;98598.91;;;17.74;100.00
63121;BME280;54478;48.684;20.114;2023-05-03T08:02:45;98590.16;;;17.51;100.00
63121;BME280;54478;48.684;20.114;2023-05-03T08:05:13;98587.34;;;17.64;100.00
63121;BME280;54478;48.684;20.114;2023-05-03T08:07:42;98584.00;;;17.52;100.00
63121;BME280;54478;48.684;20.114;2023-05-03T08:10:11;98601.66;;;17.26;100.00
63121;BME280;54478;48.684;20.114;2023-05-03T08:12:40;98605.75;;;17.38;100.00
63121;BME280;54478;48.684;20.114;2023-05-03T08:15:08;98597.75;;;17.56;100.00
63121;BME280;54478;48.684;20.114;2023-05-03T08:17:44;98588.44;;;17.61;100.00
63121;BME280;54478;48.684;20.114;2023-05-03T08:20:13;98590.59;;;17.55;100.00
63121;BME280;54478;48.684;20.114;2023-05-03T08:22:38;98577.94;;;17.35;100.00
63121;BME280;54478;48.684;20.114;2023-05-03T08:25:08;98578.03;;;17.42;100.00
63121;BME280;54478;48.684;20.114;2023-05-03T08:27:34;98570.91;;;17.55;100.00
63121;BME280;54478;48.684;20.114;2023-05-03T08:30:02;98580.63;;;17.67;100.00
63121;BME280;54478;48.684;20.114;2023-05-03T08:32:30;98584.72;;;17.80;100.00
63121;BME280;54478;48.684;20.114;2023-05-03T08:34:59;98579.97;;;17.74;100.00
63121;BME280;54478;48.684;20.114;2023-05-03T08:37:27;98588.09;;;17.51;100.00
63121;BME280;54478;48.684;20.114;2023-05-03T08:39:55;98578.63;;;17.89;100.00
63121;BME280;54478;48.684;20.114;2023-05-03T08:42:24;98579.78;;;18.20;100.00
63121;BME280;54478;48.684;20.114;2023-05-03T08:44:53;98574.78;;;18.27;100.00
63121;BME280;54478;48.684;20.114;2023-05-03T08:47:22;98587.84;;;18.03;100.00
63121;BME280;54478;48.684;20.114;2023-05-03T08:49:52;98582.09;;;17.95;100.00
63121;BME280;54478;48.684;20.114;2023-05-03T08:52:21;98580.59;;;18.29;100.00
63121;BME280;54478;48.684;20.114;2023-05-03T08:54:50;98567.00;;;18.40;100.00
63121;BME280;54478;48.684;20.114;2023-05-03T08:57:20;98577.59;;;18.27;100.00
63121;BME280;54478;48.684;20.114;2023-05-03T08:59:52;98578.28;;;18.83;100.00
63121;BME280;54478;48.684;20.114;2023-05-03T09:02:25;98568.94;;;18.67;100.00
63121;BME280;54478;48.684;20.114;2023-05-03T09:04:54;98570.59;;;19.33;100.00
63121;BME280;54478;48.684;20.114;2023-05-03T09:07:23;98563.13;;;19.44;100.00
63121;BME280;54478;48.684;20.114;2023-05-03T09:09:52;98558.75;;;19.35;100.00
63121;BME280;54478;48.684;20.114;2023-05-03T09:12:35;98560.78;;;19.34;100.00
63121;BME280;54478;48.684;20.114;2023-05-03T09:15:04;98562.59;;;19.53;100.00
63121;BME280;54478;48.684;20.114;2023-05-03T09:17:30;98566.91;;;19.46;100.00
63121;BME280;54478;48.684;20.114;2023-05-03T09:19:59;98558.25;;;19.88;100.00
63121;BME280;54478;48.684;20.114;2023-05-03T09:22:30;98566.53;;;19.86;100.00
63121;BME280;54478;48.684;20.114;2023-05-03T09:25:00;98567.09;;;19.48;100.00
63121;BME280;54478;48.684;20.114;2023-05-03T09:27:26;98563.44;;;20.13;100.00
63121;BME280;54478;48.684;20.114;2023-05-03T09:29:53;98558.25;;;19.88;100.00
63121;BME280;54478;48.684;20.114;2023-05-03T09:32:22;98550.31;;;19.43;100.00
63121;BME280;54478;48.684;20.114;2023-05-03T09:35:07;98556.91;;;19.82;100.00
63121;BME280;54478;48.684;20.114;2023-05-03T09:37:36;98559.84;;;19.68;100.00
63121;BME280;54478;48.684;20.114;2023-05-03T09:40:07;98549.22;;;19.17;100.00
63121;BME280;54478;48.684;20.114;2023-05-03T09:42:35;98569.97;;;18.98;100.00
63121;BME280;54478;48.684;20.114;2023-05-03T09:45:04;98556.53;;;19.12;100.00
63121;BME280;54478;48.684;20.114;2023-05-03T09:47:48;98566.47;;;19.79;100.00
63121;BME280;54478;48.684;20.114;2023-05-03T09:50:18;98555.41;;;19.88;100.00
63121;BME280;54478;48.684;20.114;2023-05-03T09:52:44;98556.34;;;19.83;100.00
63121;BME280;54478;48.684;20.114;2023-05-03T09:55:17;98563.44;;;19.77;100.00
63121;BME280;54478;48.684;20.114;2023-05-03T09:57:46;98551.59;;;20.38;100.00
63121;BME280;54478;48.684;20.114;2023-05-03T10:00:15;98553.50;;;20.66;100.00
63121;BME280;54478;48.684;20.114;2023-05-03T10:02:44;98539.69;;;20.24;100.00
63121;BME280;54478;48.684;20.114;2023-05-03T10:05:15;98537.66;;;20.63;100.00
63121;BME280;54478;48.684;20.114;2023-05-03T10:07:49;98539.50;;;21.38;100.00
63121;BME280;54478;48.684;20.114;2023-05-03T10:10:20;98534.56;;;21.39;100.00
63121;BME280;54478;48.684;20.114;2023-05-03T10:12:47;98534.81;;;21.17;100.00
63121;BME280;54478;48.684;20.114;2023-05-03T10:15:17;98529.16;;;21.10;100.00
63121;BME280;54478;48.684;20.114;2023-05-03T10:17:48;98531.34;;;21.58;100.00
63121;BME280;54478;48.684;20.114;2023-05-03T10:20:27;98534.44;;;21.13;100.00
63121;BME280;54478;48.684;20.114;2023-05-03T10:25:31;98531.25;;;21.09;100.00
63121;BME280;54478;48.684;20.114;2023-05-03T10:28:04;98533.91;;;20.92;100.00
63121;BME280;54478;48.684;20.114;2023-05-03T10:30:34;98533.97;;;21.48;100.00
63121;BME280;54478;48.684;20.114;2023-05-03T10:35:50;98535.69;;;21.43;100.00
63121;BME280;54478;48.684;20.114;2023-05-03T10:38:24;98520.59;;;21.41;100.00
63121;BME280;54478;48.684;20.114;2023-05-03T10:40:53;98524.25;;;21.18;100.00
63121;BME280;54478;48.684;20.114;2023-05-03T10:46:04;98525.59;;;21.01;100.00
63121;BME280;54478;48.684;20.114;2023-05-03T10:48:33;98522.41;;;20.97;100.00
63121;BME280;54478;48.684;20.114;2023-05-03T10:51:31;98527.28;;;20.89;100.00
63121;BME280;54478;48.684;20.114;2023-05-03T10:54:03;98531.03;;;20.30;100.00
63121;BME280;54478;48.684;20.114;2023-05-03T10:56:32;98522.41;;;20.82;100.00
63121;BME280;54478;48.684;20.114;2023-05-03T10:59:00;98542.34;;;20.37;100.00
63121;BME280;54478;48.684;20.114;2023-05-03T11:01:28;98521.63;;;20.50;100.00
63121;BME280;54478;48.684;20.114;2023-05-03T11:04:03;98529.56;;;20.67;100.00
63121;BME280;54478;48.684;20.114;2023-05-03T11:06:34;98530.28;;;20.29;100.00
63121;BME280;54478;48.684;20.114;2023-05-03T11:09:03;98531.81;;;20.30;100.00
63121;BME280;54478;48.684;20.114;2023-05-03T11:11:38;98523.88;;;20.21;100.00
63121;BME280;54478;48.684;20.114;2023-05-03T11:14:05;98534.44;;;20.51;100.00
63121;BME280;54478;48.684;20.114;2023-05-03T11:16:34;98531.59;;;19.68;100.00
63121;BME280;54478;48.684;20.114;2023-05-03T11:19:04;98533.91;;;19.78;100.00
63121;BME280;54478;48.684;20.114;2023-05-03T11:21:32;98525.13;;;19.89;100.00
63121;BME280;54478;48.684;20.114;2023-05-03T11:24:01;98534.34;;;19.90;100.00
63121;BME280;54478;48.684;20.114;2023-05-03T11:26:37;98531.69;;;19.84;100.00
63121;BME280;54478;48.684;20.114;2023-05-03T11:29:08;98528.91;;;19.55;100.00
63121;BME280;54478;48.684;20.114;2023-05-03T11:31:37;98532.84;;;19.96;100.00
63121;BME280;54478;48.684;20.114;2023-05-03T11:34:06;98529.88;;;20.10;100.00
63121;BME280;54478;48.684;20.114;2023-05-03T11:36:36;98532.06;;;19.88;100.00
63121;BME280;54478;48.684;20.114;2023-05-03T11:39:04;98529.00;;;19.78;100.00
63121;BME280;54478;48.684;20.114;2023-05-03T11:41:32;98537.94;;;19.90;100.00
63121;BME280;54478;48.684;20.114;2023-05-03T11:44:01;98539.97;;;19.90;100.00
63121;BME280;54478;48.684;20.114;2023-05-03T11:46:33;98528.72;;;19.97;100.00
63121;BME280;54478;48.684;20.114;2023-05-03T11:49:02;98532.22;;;19.38;100.00
63121;BME280;54478;48.684;20.114;2023-05-03T11:51:30;98536.06;;;19.56;100.00
63121;BME280;54478;48.684;20.114;2023-05-03T11:53:59;98541.00;;;20.15;100.00
63121;BME280;54478;48.684;20.114;2023-05-03T11:56:29;98533.44;;;20.02;100.00
63121;BME280;54478;48.684;20.114;2023-05-03T11:58:58;98530.25;;;20.14;100.00
63121;BME280;54478;48.684;20.114;2023-05-03T12:01:28;98526.34;;;20.56;100.00
63121;BME280;54478;48.684;20.114;2023-05-03T12:03:58;98530.25;;;20.14;100.00
63121;BME280;54478;48.684;20.114;2023-05-03T12:06:28;98532.50;;;20.08;100.00
63121;BME280;54478;48.684;20.114;2023-05-03T12:09:00;98532.28;;;19.90;100.00
63121;BME280;54478;48.684;20.114;2023-05-03T12:11:28;98529.81;;;19.86;100.00
63121;BME280;54478;48.684;20.114;2023-05-03T12:13:58;98528.72;;;19.97;100.00
63121;BME280;54478;48.684;20.114;2023-05-03T12:16:27;98526.81;;;19.92;100.00
63121;BME280;54478;48.684;20.114;2023-05-03T12:18:57;98528.00;;;20.12;100.00
63121;BME280;54478;48.684;20.114;2023-05-03T12:21:46;98529.31;;;19.59;100.00
63121;BME280;54478;48.684;20.114;2023-05-03T12:24:15;98535.81;;;19.83;100.00
63121;BME280;54478;48.684;20.114;2023-05-03T12:26:46;98529.03;;;19.05;100.00
63121;BME280;54478;48.684;20.114;2023-05-03T12:29:14;98538.91;;;19.19;100.00
63121;BME280;54478;48.684;20.114;2023-05-03T12:31:44;98536.72;;;19.33;100.00
63121;BME280;54478;48.684;20.114;2023-05-03T12:34:12;98542.38;;;19.78;100.00
63121;BME280;54478;48.684;20.114;2023-05-03T12:36:41;98545.63;;;19.45;100.00
63121;BME280;54478;48.684;20.114;2023-05-03T12:39:09;98544.38;;;19.25;100.00
63121;BME280;54478;48.684;20.114;2023-05-03T12:41:38;98540.50;;;19.36;100.00
63121;BME280;54478;48.684;20.114;2023-05-03T12:44:06;98539.88;;;19.01;100.00
63121;BME280;54478;48.684;20.114;2023-05-03T12:46:31;98546.94;;;19.44;100.00
63121;BME280;54478;48.684;20.114;2023-05-03T12:48:57;98543.03;;;18.89;100.00
63121;BME280;54478;48.684;20.114;2023-05-03T12:51:26;98540.44;;;18.99;100.00
63121;BME280;54478;48.684;20.114;2023-05-03T12:53:55;98528.25;;;19.33;100.00
63121;BME280;54478;48.684;20.114;2023-05-03T12:56:23;98537.09;;;18.80;100.00
63121;BME280;54478;48.684;20.114;2023-05-03T12:58:51;98523.59;;;18.86;100.00
63121;BME280;54478;48.684;20.114;2023-05-03T13:01:20;98542.06;;;18.66;100.00